Latest Weather Observations for Murganella Airstrip

IDD60801

Issued at 10:35 pm CST Tuesday 16 September 2014 (issued every 30 minutes, with the page automatically refreshed every 10 minutes)

About weather observations | Map of weather stations | Latest weather observations for NT | Other Formats
Station Details ID: 014309 Name: MURGANELLA AIRSTRIP Lat: -11.55 Lon: 132.93 Height: 9.5 m
Data from the previous 72 hours. | See also: Recent months for locations in Northern Territory
Date/Time
CST
Temp
°C
App
Temp
°C
Dew
Point
Rel
Hum
%
Delta-T
°C
Wind Press
QNH
hPa
Press
MSL
hPa
Rain
since 9 am
mm
Dir
 
Spd
km/h
Gust
km/h
Spd
kts
Gust
kts
16/10:30pm 22.7 - - - - NE 0 0 0 0 1012.9 1012.8 0.0
16/10:00pm 23.0 - - - - NE 0 0 0 0 1012.9 1012.8 0.0
16/09:30pm 23.5 - - - - CALM 0 0 0 0 1012.6 1012.5 0.0
16/09:00pm 23.9 - - - - CALM 0 2 0 1 1012.4 1012.3 0.0
16/08:30pm 24.3 - - - - NE 4 6 2 3 1012.3 1012.2 0.0
16/08:00pm 24.6 - - - - NNE 2 7 1 4 1012.1 1012.0 0.0
16/07:30pm 24.9 - - - - NNE 4 6 2 3 1011.8 1011.7 0.0
16/07:00pm 25.4 - - - - NNE 6 9 3 5 1011.4 1011.3 0.0
16/06:30pm 25.9 - - - - NE 9 15 5 8 1010.9 1010.8 0.0
16/06:00pm 26.8 - - - - NE 13 20 7 11 1010.7 1010.6 0.0
16/05:30pm 27.4 - - - - NE 13 26 7 14 1010.4 1010.3 0.0
16/05:00pm 28.5 - - - - NE 13 22 7 12 1010.3 1010.2 0.0
16/04:30pm 28.9 - - - - ENE 15 22 8 12 1010.5 1010.4 0.0
16/04:00pm 29.5 - - - - NE 13 20 7 11 1010.4 1010.3 0.0
16/03:30pm 29.7 - - - - NE 15 24 8 13 1010.4 1010.3 0.0
16/03:00pm 30.0 - - - - NNE 17 24 9 13 1010.7 1010.6 0.0
16/02:30pm 31.4 - - - - NE 15 26 8 14 1011.1 1011.0 0.0
16/02:00pm 31.5 - - - - ENE 13 24 7 13 1011.5 1011.4 0.0
16/01:30pm 31.4 - - - - ENE 17 26 9 14 1011.8 1011.7 0.0
16/01:00pm 32.1 - - - - ENE 13 28 7 15 1012.1 1012.0 0.0
16/12:30pm 32.4 - - - - ENE 13 28 7 15 1012.6 1012.5 0.0
16/12:00pm 31.9 - - - - E 11 19 6 10 1013.0 1012.9 0.0
16/11:30am 30.6 - - - - NE 11 19 6 10 1013.3 1013.2 0.0
16/11:00am 30.0 - - - - NE 11 20 6 11 1013.6 1013.5 0.0
16/10:30am 29.6 - - - - NE 13 19 7 10 1013.9 1013.8 0.0
16/10:00am 29.1 - - - - NE 11 17 6 9 1014.0 1013.9 0.0
16/09:30am 27.2 - - - - NE 9 15 5 8 1014.1 1014.0 0.0
16/09:00am 26.3 - - - - ESE 4 7 2 4 1014.0 1013.9 0.0
16/08:30am 24.9 - - - - S 2 4 1 2 1013.8 1013.7 0.0
16/08:00am 22.9 - - - - S 4 6 2 3 1013.7 1013.6 0.0
16/07:30am 20.4 - - - - CALM 0 0 0 0 1013.3 1013.2 0.0
16/07:00am 18.9 - - - - CALM 0 0 0 0 1012.9 1012.8 0.0
16/06:30am 18.5 - - - - CALM 0 0 0 0 1012.4 1012.3 0.0
16/06:00am 18.6 - - - - CALM 0 0 0 0 1012.0 1011.9 0.0
16/05:30am 18.6 - - - - CALM 0 0 0 0 1011.8 1011.7 0.0
16/05:00am 19.1 - - - - CALM 0 0 0 0 1011.5 1011.4 0.0
16/04:30am 19.2 - - - - CALM 0 0 0 0 1011.4 1011.3 0.0
16/04:00am 19.2 - - - - CALM 0 0 0 0 1011.1 1011.0 0.0
16/03:30am 19.5 - - - - CALM 0 0 0 0 1011.0 1010.9 0.0
16/03:00am 19.7 - - - - CALM 0 0 0 0 1011.2 1011.1 0.0
16/02:30am 19.8 - - - - CALM 0 0 0 0 1011.4 1011.3 0.0
16/02:00am 19.8 - - - - CALM 0 0 0 0 1011.7 1011.6 0.0
16/01:30am 20.1 - - - - CALM 0 0 0 0 1011.9 1011.8 0.0
16/01:00am 20.5 - - - - NNE 0 0 0 0 1012.0 1011.9 0.0
16/12:30am 21.0 - - - - NNE 0 0 0 0 1012.3 1012.2 0.0
16/12:00am 21.2 - - - - NNE 0 0 0 0 1012.4 1012.3 0.0
 
Date/Time
CST
Temp
°C
App
Temp
°C
Dew
Point
Rel
Hum
%
Delta-T
°C
Wind Press
QNH
hPa
Press
MSL
hPa
Rain
since 9 am
mm
Dir
 
Spd
km/h
Gust
km/h
Spd
kts
Gust
kts
15/11:30pm 21.4 - - - - CALM 0 0 0 0 1012.3 1012.2 0.0
15/11:00pm 21.9 - - - - CALM 0 0 0 0 1012.3 1012.2 0.0
15/10:30pm 22.3 - - - - CALM 0 0 0 0 1012.2 1012.1 0.0
15/10:00pm 22.7 - - - - CALM 0 0 0 0 1012.2 1012.1 0.0
15/09:30pm 23.0 - - - - CALM 0 0 0 0 1012.1 1012.0 0.0
15/09:00pm 23.4 - - - - CALM 0 0 0 0 1011.9 1011.8 0.0
15/08:30pm 24.0 - - - - N 2 4 1 2 1011.7 1011.6 0.0
15/08:00pm 24.5 - - - - N 2 4 1 2 1011.6 1011.5 0.0
15/07:30pm 25.0 - - - - NNE 4 6 2 3 1011.2 1011.1 0.0
15/07:00pm 25.3 - - - - NE 7 13 4 7 1010.8 1010.7 0.0
15/06:30pm 25.7 - - - - NE 9 19 5 10 1010.4 1010.3 0.0
15/06:00pm 26.4 - - - - ENE 11 19 6 10 1010.1 1010.0 0.0
15/05:30pm 27.2 - - - - ENE 13 26 7 14 1010.0 1009.9 0.0
15/05:00pm 28.2 - - - - ENE 13 24 7 13 1010.1 1010.0 0.0
15/04:30pm 28.8 - - - - ENE 17 32 9 17 1010.1 1010.0 0.0
15/04:00pm 29.3 - - - - NE 15 26 8 14 1010.1 1010.0 0.0
15/03:30pm 29.5 - - - - NE 17 26 9 14 1010.3 1010.2 0.0
15/03:00pm 29.9 - - - - NE 13 24 7 13 1010.5 1010.4 0.0
15/02:30pm 30.6 - - - - ENE 15 26 8 14 1010.9 1010.8 0.0
15/02:00pm 30.2 - - - - E 13 24 7 13 1011.4 1011.3 0.0
15/01:30pm 30.6 - - - - ENE 13 24 7 13 1011.9 1011.8 0.0
15/01:00pm 29.6 - - - - ENE 15 22 8 12 1012.5 1012.4 0.0
15/12:30pm 30.4 - - - - E 15 24 8 13 1012.7 1012.6 0.0
15/12:00pm 29.4 - - - - ENE 17 24 9 13 1013.1 1013.0 0.0
15/11:30am 30.1 - - - - E 15 28 8 15 1013.5 1013.4 0.0
15/11:00am 29.7 - - - - NE 13 22 7 12 1013.8 1013.7 0.0
15/10:30am 28.9 - - - - ENE 13 24 7 13 1014.1 1014.0 0.0
15/10:00am 28.4 - - - - NE 11 20 6 11 1014.1 1014.0 0.0
15/09:30am 28.4 - - - - E 11 22 6 12 1014.0 1013.9 0.0
15/09:00am 27.4 - - - - E 11 20 6 11 1013.9 1013.8 -
15/08:30am 26.8 - - - - E 9 15 5 8 1013.6 1013.5 -
15/08:00am 24.4 - - - - S 4 6 2 3 1013.3 1013.2 -
15/07:30am 23.5 - - - - CALM 0 2 0 1 1013.0 1012.9 -
15/07:00am 22.8 - - - - CALM 0 0 0 0 1012.6 1012.5 -
15/06:30am 22.5 - - - - CALM 0 0 0 0 1012.3 1012.2 -
15/06:00am 23.3 - - - - ESE 2 4 1 2 1011.9 1011.8 -
15/05:30am 23.5 - - - - E 4 6 2 3 1011.4 1011.3 -
15/05:00am 23.8 - - - - ENE 6 9 3 5 1011.0 1010.9 -
15/04:30am 23.5 - - - - ENE 6 13 3 7 1011.0 1010.9 -
15/04:00am 23.5 - - - - ENE 4 6 2 3 1010.9 1010.8 -
15/03:30am 23.4 - - - - ENE 4 6 2 3 1011.0 1010.9 -
15/03:00am 23.3 - - - - CALM 0 0 0 0 1011.1 1011.0 0.0
15/02:30am 23.5 - - - - E 4 6 2 3 1011.4 1011.3 -
15/02:00am 23.6 - - - - ENE 4 6 2 3 1011.5 1011.4 -
15/01:30am 23.7 - - - - ENE 4 6 2 3 1011.7 1011.6 -
15/01:00am 24.1 - - - - ENE 4 9 2 5 1011.8 1011.7 -
15/12:30am 24.5 - - - - NE 6 13 3 7 1012.0 1011.9 -
15/12:00am 24.2 - - - - ENE 6 9 3 5 1012.3 1012.2 -
 
Date/Time
CST
Temp
°C
App
Temp
°C
Dew
Point
Rel
Hum
%
Delta-T
°C
Wind Press
QNH
hPa
Press
MSL
hPa
Rain
since 9 am
mm
Dir
 
Spd
km/h
Gust
km/h
Spd
kts
Gust
kts
14/11:30pm 24.2 - - - - ENE 6 15 3 8 1012.4 1012.3 -
14/11:00pm 24.2 - - - - NE 7 11 4 6 1012.2 1012.1 -
14/10:30pm 22.9 - - - - ENE 4 7 2 4 1012.1 1012.0 -
14/10:00pm 22.0 - - - - ENE 2 6 1 3 1011.9 1011.8 -
14/09:30pm 21.9 - - - - ENE 2 4 1 2 1011.7 1011.6 -
14/09:00pm 22.4 - - - - NNE 2 4 1 2 1011.5 1011.4 -
14/08:30pm 23.2 - - - - NNE 2 4 1 2 1011.4 1011.3 -
14/08:00pm 23.5 - - - - NE 4 4 2 2 1011.1 1011.0 -
14/07:30pm 24.5 - - - - NE 2 4 1 2 1010.9 1010.8 -
14/07:00pm 25.3 - - - - NE 4 9 2 5 1010.8 1010.7 -
14/06:30pm 26.0 - - - - NE 6 13 3 7 1010.5 1010.4 -
14/06:00pm 26.9 - - - - NE 9 17 5 9 1010.2 1010.1 0.0
14/05:30pm 27.9 - - - - NE 13 22 7 12 1010.0 1009.9 0.0
14/05:00pm 28.5 - - - - NE 13 22 7 12 1009.9 1009.8 0.0
14/04:30pm 29.4 - - - - ENE 13 22 7 12 1009.7 1009.6 0.0
14/04:00pm 30.0 - - - - NE 17 32 9 17 1009.7 1009.6 0.0
14/03:30pm 30.2 - - - - NE 19 28 10 15 1009.8 1009.7 0.0
14/03:00pm 30.9 - - - - NE 17 26 9 14 1010.1 1010.0 0.0
14/02:30pm 31.2 - - - - ENE 17 28 9 15 1010.3 1010.2 0.0
14/02:00pm 31.5 - - - - E 17 28 9 15 1010.7 1010.6 0.0
14/01:30pm 31.4 - - - - ENE 17 32 9 17 1011.4 1011.3 0.0
14/01:00pm 30.5 - - - - ENE 17 26 9 14 1011.9 1011.8 0.0
14/12:30pm 30.1 - - - - E 17 32 9 17 1012.5 1012.4 0.0
14/12:00pm 29.4 - - - - E 15 28 8 15 1012.9 1012.8 0.0
14/11:30am 29.5 - - - - E 13 26 7 14 1013.3 1013.2 0.0
14/11:00am 29.0 - - - - E 13 20 7 11 1013.7 1013.6 0.0
14/10:30am 29.2 - - - - ENE 11 20 6 11 1013.7 1013.6 0.0
14/10:00am 28.3 - - - - E 13 20 7 11 1013.8 1013.7 0.0
14/09:30am 27.4 - - - - E 11 19 6 10 1013.9 1013.8 0.0
14/09:00am 25.7 - - - - ESE 6 11 3 6 1014.0 1013.9 0.0
14/08:30am 23.1 - - - - SSE 6 7 3 4 1013.9 1013.8 0.0
14/08:00am 21.3 - - - - SSE 7 9 4 5 1013.8 1013.7 0.0
14/07:30am 20.5 - - - - S 4 7 2 4 1013.7 1013.6 0.0
14/07:00am 19.8 - - - - SSW 4 7 2 4 1013.3 1013.2 0.0
14/06:30am 17.5 - - - - CALM 0 0 0 0 1012.9 1012.8 0.0
14/06:00am 17.6 - - - - CALM 0 0 0 0 1012.6 1012.5 0.0
14/05:30am 18.4 - - - - CALM 0 0 0 0 1012.2 1012.1 0.0
14/05:00am 18.9 - - - - CALM 0 0 0 0 1012.0 1011.9 0.0
14/04:30am 19.0 - - - - CALM 0 0 0 0 1011.9 1011.8 0.0
14/04:00am 19.3 - - - - CALM 0 0 0 0 1011.8 1011.7 0.0
14/03:30am 19.6 - - - - CALM 0 2 0 1 1011.7 1011.6 0.0
14/03:00am 20.9 - - - - ESE 2 4 1 2 1011.8 1011.7 0.0
14/02:30am 21.7 - - - - E 4 6 2 3 1011.9 1011.8 0.0
14/02:00am 21.3 - - - - ENE 4 7 2 4 1012.2 1012.1 0.0
14/01:30am 20.8 - - - - E 4 4 2 2 1012.3 1012.2 0.0
14/01:00am 20.3 - - - - E 4 6 2 3 1012.4 1012.3 0.0
14/12:30am 20.2 - - - - CALM 0 0 0 0 1012.7 1012.6 0.0
14/12:00am 20.3 - - - - CALM 0 0 0 0 1012.9 1012.8 0.0
 
Date/Time
CST
Temp
°C
App
Temp
°C
Dew
Point
Rel
Hum
%
Delta-T
°C
Wind Press
QNH
hPa
Press
MSL
hPa
Rain
since 9 am
mm
Dir
 
Spd
km/h
Gust
km/h
Spd
kts
Gust
kts
13/11:30pm 20.5 - - - - CALM 0 0 0 0 1013.1 1013.0 0.0
13/11:00pm 20.8 - - - - CALM 0 0 0 0 1013.0 1012.9 0.0

Other Formats:

Comma delimited format used in spreadsheet applications
http://www.bom.gov.au/fwo/IDD60801/IDD60801.94109.axf

JavaScript Object Notation format (JSON) in row-major order
http://www.bom.gov.au/fwo/IDD60801/IDD60801.94109.json